Terminal Aerodrome Forecast
Issued by NWS Hastings, NE

Home | Current Version | Previous Version | Text Only | Print | Product List | Glossary On
Versions: 1 2 3 4 5 6 7 8 9 10 11 12 13 14 15 16 17 18 19 20 21 22 23 24 25 26 27 28 29 30
144
FTUS43 KGID 161720
TAFGRI
TAF
KGRI 161720Z 1618/1718 01012KT 4SM -FZRA OVC008
     FM162100 36015G22KT 3SM FZRASN OVC008
     FM170200 34013G21KT P6SM VCSH OVC008
     FM170400 34011G19KT P6SM OVC025
     FM170700 33011KT P6SM FEW250=

USA.gov is the U.S. government's official web portal to all federal, state and local government web resources and services.